createdAt,value
2018-02-07T00:00:29.594Z,33.23
2018-02-07T00:02:57.833Z,34.57
2018-02-07T00:05:25.310Z,36.60
2018-02-07T00:07:53.259Z,37.30
2018-02-07T00:10:20.748Z,34.83
2018-02-07T00:12:48.218Z,33.33
2018-02-07T00:15:15.738Z,36.50
2018-02-07T00:17:43.229Z,37.37
2018-02-07T00:20:12.197Z,34.83
2018-02-07T00:22:39.673Z,36.70
2018-02-07T00:25:07.158Z,36.50
2018-02-07T00:27:35.405Z,33.77
2018-02-07T00:30:02.882Z,36.20
2018-02-07T00:32:31.141Z,35.53
2018-02-07T00:34:58.614Z,33.90
2018-02-07T00:37:26.140Z,33.50
2018-02-07T00:39:53.620Z,35.03
2018-02-07T00:42:21.103Z,30.37
2018-02-07T00:44:49.338Z,33.23
2018-02-07T00:47:16.838Z,33.80
2018-02-07T00:49:45.070Z,32.40
2018-02-07T00:52:12.544Z,34.93
2018-02-07T00:54:40.004Z,33.87
2018-02-07T00:57:07.492Z,33.37
2018-02-07T00:59:35.879Z,34.00
2018-02-07T01:02:04.135Z,34.40
2018-02-07T01:04:31.605Z,33.57
2018-02-07T01:06:59.844Z,34.20
2018-02-07T01:09:27.337Z,34.83
2018-02-07T01:11:55.562Z,35.03
2018-02-07T01:14:23.050Z,35.90
2018-02-07T01:16:51.282Z,33.77
2018-02-07T01:19:18.765Z,35.17
2018-02-07T01:21:46.231Z,30.90
2018-02-07T01:24:13.719Z,33.00
2018-02-07T01:26:41.965Z,36.87
2018-02-07T01:29:09.442Z,33.50
2018-02-07T01:31:36.923Z,34.87
2018-02-07T01:34:05.177Z,34.20
2018-02-07T01:36:32.665Z,35.97
2018-02-07T01:39:00.145Z,34.90
2018-02-07T01:41:27.621Z,35.50
2018-02-07T01:43:55.106Z,37.43
2018-02-07T01:46:22.596Z,32.37
2018-02-07T01:48:50.086Z,35.67
2018-02-07T01:51:17.579Z,31.80
2018-02-07T01:53:45.818Z,37.30
2018-02-07T01:56:13.290Z,35.20
2018-02-07T01:58:40.773Z,36.40
2018-02-07T02:01:08.240Z,38.73
2018-02-07T02:03:36.507Z,39.70
2018-02-07T02:06:03.995Z,40.90
2018-02-07T02:08:32.240Z,40.47
2018-02-07T02:10:59.706Z,39.33
2018-02-07T02:13:27.217Z,40.43
2018-02-07T02:15:54.685Z,40.50
2018-02-07T02:18:22.175Z,41.70
2018-02-07T02:20:49.643Z,40.57
2018-02-07T02:23:17.152Z,40.33
2018-02-07T02:25:44.852Z,42.77
2018-02-07T02:28:12.575Z,38.67
2018-02-07T02:30:40.075Z,43.67
2018-02-07T02:33:07.549Z,37.60
2018-02-07T02:35:35.026Z,40.30
2018-02-07T02:38:03.274Z,41.27
2018-02-07T02:40:30.734Z,38.03
2018-02-07T02:42:58.984Z,40.57
2018-02-07T02:45:26.442Z,39.77
2018-02-07T02:47:54.369Z,42.07
2018-02-07T02:50:22.107Z,39.77
2018-02-07T02:52:49.581Z,41.37
2018-02-07T02:55:17.827Z,40.33
2018-02-07T02:57:45.330Z,42.97
2018-02-07T03:00:12.824Z,41.70
2018-02-07T03:02:40.290Z,40.40
2018-02-07T03:05:07.785Z,43.93
2018-02-07T03:07:35.257Z,41.63
2018-02-07T03:10:02.746Z,40.80
2018-02-07T03:12:30.262Z,43.20
2018-02-07T03:14:58.511Z,43.73
2018-02-07T03:17:26.001Z,41.53
2018-02-07T03:19:54.275Z,43.90
2018-02-07T03:22:21.750Z,41.00
2018-02-07T03:24:49.231Z,42.33
2018-02-07T03:27:16.691Z,42.57
2018-02-07T03:29:44.182Z,40.07
2018-02-07T03:32:11.672Z,43.37
2018-02-07T03:34:40.262Z,43.20
2018-02-07T03:37:07.757Z,41.73
2018-02-07T03:39:35.240Z,44.40
2018-02-07T03:42:02.722Z,44.33
2018-02-07T03:44:30.969Z,45.80
2018-02-07T03:46:58.445Z,42.70
2018-02-07T03:49:25.914Z,42.70
2018-02-07T03:51:54.178Z,41.30
2018-02-07T03:54:21.650Z,42.00
2018-02-07T03:56:49.955Z,41.30
2018-02-07T03:59:17.447Z,40.40
2018-02-07T04:01:44.935Z,43.70
2018-02-07T04:04:12.442Z,42.97
2018-02-07T04:06:39.931Z,42.03
2018-02-07T04:09:07.430Z,41.47
2018-02-07T04:11:35.665Z,42.87
2018-02-07T04:14:03.141Z,44.60
2018-02-07T04:16:30.646Z,43.77
2018-02-07T04:18:58.142Z,44.83
2018-02-07T04:21:25.603Z,41.27
2018-02-07T04:23:53.100Z,42.30
2018-02-07T04:26:21.327Z,46.27
2018-02-07T04:28:48.810Z,45.80
2018-02-07T04:31:17.060Z,46.97
2018-02-07T04:33:44.532Z,42.20
2018-02-07T04:36:12.023Z,49.27
2018-02-07T04:38:40.297Z,46.77
2018-02-07T04:41:07.771Z,45.50
2018-02-07T04:43:36.042Z,42.97
2018-02-07T04:46:04.271Z,41.10
2018-02-07T04:48:31.762Z,46.60
2018-02-07T04:50:59.238Z,43.43
2018-02-07T04:53:27.469Z,44.53
2018-02-07T04:55:54.975Z,44.60
2018-02-07T04:58:23.206Z,46.33
2018-02-07T05:00:50.703Z,43.07
2018-02-07T05:03:19.099Z,43.47
2018-02-07T05:05:46.577Z,45.40
2018-02-07T05:08:14.073Z,42.00
2018-02-07T05:10:41.544Z,43.17
2018-02-07T05:13:09.055Z,44.83
2018-02-07T05:15:36.531Z,45.73
2018-02-07T05:18:04.457Z,43.17
2018-02-07T05:20:31.928Z,43.50
2018-02-07T05:22:59.425Z,44.50
2018-02-07T05:25:26.926Z,45.70
2018-02-07T05:27:55.636Z,46.90
2018-02-07T05:30:23.106Z,47.80
2018-02-07T05:32:50.581Z,45.37
2018-02-07T05:35:18.844Z,44.60
2018-02-07T05:37:46.334Z,43.60
2018-02-07T05:40:13.835Z,44.27
2018-02-07T05:42:41.305Z,46.33
2018-02-07T05:45:08.804Z,46.23
2018-02-07T05:47:36.306Z,45.90
2018-02-07T05:50:04.562Z,43.00
2018-02-07T05:52:32.045Z,45.57
2018-02-07T05:54:59.540Z,45.13
2018-02-07T05:57:27.035Z,46.10
2018-02-07T05:59:58.500Z,42.87
2018-02-07T06:02:26.072Z,45.00
2018-02-07T06:04:54.321Z,44.30
2018-02-07T06:07:23.303Z,46.63
2018-02-07T06:09:50.784Z,45.43
2018-02-07T06:12:19.042Z,44.30
2018-02-07T06:14:46.513Z,45.57
2018-02-07T06:17:14.009Z,42.87
2018-02-07T06:19:41.503Z,46.07
2018-02-07T06:22:09.002Z,44.10
2018-02-07T06:24:37.233Z,42.37
2018-02-07T06:27:04.739Z,42.47
2018-02-07T06:29:32.997Z,42.57
2018-02-07T06:32:00.588Z,45.57
2018-02-07T06:34:28.072Z,43.30
2018-02-07T06:36:55.554Z,42.20
2018-02-07T06:39:23.032Z,42.07
2018-02-07T06:41:50.505Z,42.90
2018-02-07T06:44:18.749Z,41.90
2018-02-07T06:46:46.230Z,42.10
2018-02-07T06:49:13.704Z,40.83
2018-02-07T06:51:41.960Z,39.37
2018-02-07T06:54:09.497Z,39.90
2018-02-07T06:56:36.970Z,44.77
2018-02-07T06:59:04.458Z,47.87
2018-02-07T07:01:32.702Z,42.00
2018-02-07T07:04:00.266Z,43.20
2018-02-07T07:06:27.780Z,41.80
2018-02-07T07:08:55.285Z,47.23
2018-02-07T07:11:22.777Z,41.80
2018-02-07T07:13:51.008Z,40.17
2018-02-07T07:16:18.807Z,43.27
2018-02-07T07:18:47.058Z,47.60
2018-02-07T07:21:14.539Z,46.83
2018-02-07T07:23:43.193Z,43.90
2018-02-07T07:26:10.672Z,46.47
2018-02-07T07:28:38.167Z,45.87
2018-02-07T07:31:05.644Z,46.90
2018-02-07T07:33:33.130Z,41.53
2018-02-07T07:36:00.608Z,43.97
2018-02-07T07:38:28.355Z,45.70
2018-02-07T07:40:55.843Z,45.90
2018-02-07T07:43:24.075Z,49.57
2018-02-07T07:45:51.558Z,47.53
2018-02-07T07:48:19.043Z,46.83
2018-02-07T07:50:47.313Z,46.30
2018-02-07T07:53:15.552Z,46.03
2018-02-07T07:55:43.054Z,48.37
2018-02-07T07:58:11.356Z,48.97
2018-02-07T08:00:39.565Z,45.63
2018-02-07T08:03:07.050Z,44.93
2018-02-07T08:05:35.296Z,45.67
2018-02-07T08:08:02.803Z,46.13
2018-02-07T08:10:31.040Z,45.60
2018-02-07T08:12:59.289Z,46.67
2018-02-07T08:15:26.787Z,44.47
2018-02-07T08:17:54.274Z,47.43
2018-02-07T08:20:22.519Z,46.57
2018-02-07T08:22:50.025Z,43.67
2018-02-07T08:25:17.505Z,42.50
2018-02-07T08:27:44.976Z,44.27
2018-02-07T08:30:12.450Z,42.53
2018-02-07T08:32:39.934Z,41.87
2018-02-07T08:35:08.162Z,39.03
2018-02-07T08:37:35.685Z,40.33
2018-02-07T08:40:03.138Z,43.70
2018-02-07T08:42:30.637Z,39.53
2018-02-07T08:44:58.114Z,36.33
2018-02-07T08:47:25.610Z,40.20
2018-02-07T08:49:53.859Z,39.20
2018-02-07T08:52:21.328Z,39.80
2018-02-07T08:54:49.581Z,36.90
2018-02-07T08:57:17.055Z,37.97
2018-02-07T08:59:44.542Z,37.80
2018-02-07T09:02:12.028Z,37.20
2018-02-07T09:04:39.507Z,41.23
2018-02-07T09:07:07.207Z,40.13
2018-02-07T09:09:35.474Z,40.40
2018-02-07T09:12:02.938Z,38.87
2018-02-07T09:14:30.429Z,42.33
2018-02-07T09:16:57.910Z,38.77
2018-02-07T09:19:25.403Z,42.30
2018-02-07T09:21:52.884Z,39.93
2018-02-07T09:24:21.118Z,41.17
2018-02-07T09:26:48.603Z,39.80
2018-02-07T09:29:17.022Z,42.77
2018-02-07T09:31:44.493Z,43.03
2018-02-07T09:34:11.980Z,40.60
2018-02-07T09:36:39.449Z,43.37
2018-02-07T09:39:07.061Z,42.83
2018-02-07T09:41:34.538Z,43.50
2018-02-07T09:44:02.001Z,42.70
2018-02-07T09:46:29.518Z,42.77
2018-02-07T09:48:56.999Z,42.37
2018-02-07T09:51:24.678Z,42.23
2018-02-07T09:53:52.157Z,41.10
2018-02-07T09:56:19.690Z,43.10
2018-02-07T09:58:47.161Z,40.83
2018-02-07T10:01:14.647Z,42.70
2018-02-07T10:03:42.158Z,45.13
2018-02-07T10:06:09.658Z,42.70
2018-02-07T10:08:37.178Z,42.57
2018-02-07T10:11:04.649Z,40.77
2018-02-07T10:13:32.163Z,43.37
2018-02-07T10:15:59.655Z,44.20
2018-02-07T10:18:27.138Z,42.00
2018-02-07T10:20:54.612Z,46.40
2018-02-07T10:23:22.135Z,46.53
2018-02-07T10:25:49.598Z,44.00
2018-02-07T10:28:17.098Z,45.40
2018-02-07T10:30:44.574Z,45.67
2018-02-07T10:33:12.807Z,48.90
2018-02-07T10:35:40.380Z,47.03
2018-02-07T10:38:07.852Z,46.60
2018-02-07T10:40:36.115Z,47.97
2018-02-07T10:43:03.685Z,45.90
2018-02-07T10:45:31.174Z,47.10
2018-02-07T10:47:58.639Z,45.80
2018-02-07T10:50:26.126Z,44.27
2018-02-07T10:52:53.606Z,44.20
2018-02-07T10:55:21.092Z,47.97
2018-02-07T10:57:49.337Z,49.70
2018-02-07T11:00:16.808Z,51.13
2018-02-07T11:02:44.299Z,49.13
2018-02-07T11:05:11.786Z,50.80
2018-02-07T11:07:39.278Z,49.77
2018-02-07T11:10:06.766Z,50.57
2018-02-07T11:12:35.034Z,50.20
2018-02-07T11:15:03.333Z,49.70
2018-02-07T11:17:30.919Z,50.70
2018-02-07T11:19:59.477Z,51.63
2018-02-07T11:22:26.973Z,53.07
2018-02-07T11:24:54.447Z,55.43
2018-02-07T11:27:21.942Z,57.40
2018-02-07T11:29:50.192Z,57.57
2018-02-07T11:32:17.674Z,56.00
2018-02-07T11:34:45.926Z,56.47
2018-02-07T11:37:14.192Z,66.13
2018-02-07T11:39:41.668Z,67.57
2018-02-07T11:42:09.187Z,72.43
2018-02-07T11:44:36.657Z,69.53
2018-02-07T11:47:04.147Z,80.57
2018-02-07T11:49:31.636Z,69.63
2018-02-07T11:51:59.117Z,76.57
2018-02-07T11:54:26.755Z,78.40
2018-02-07T11:56:54.249Z,80.67
2018-02-07T11:59:21.761Z,84.90
2018-02-07T12:01:49.334Z,77.20
2018-02-07T12:04:16.762Z,74.30
2018-02-07T12:06:45.020Z,84.80
2018-02-07T12:09:12.504Z,74.20
2018-02-07T12:11:39.962Z,75.43
2018-02-07T12:14:08.221Z,84.40
2018-02-07T12:16:36.048Z,92.10
2018-02-07T12:19:03.726Z,96.27
2018-02-07T12:21:31.262Z,98.77
2018-02-07T12:23:59.029Z,89.10
2018-02-07T12:26:26.521Z,85.13
2018-02-07T12:28:55.245Z,82.50
2018-02-07T12:31:23.488Z,77.27
2018-02-07T12:33:51.144Z,76.17
2018-02-07T12:36:18.646Z,80.03
2018-02-07T12:38:46.883Z,80.40
2018-02-07T12:41:14.616Z,83.33
2018-02-07T12:43:42.102Z,85.30
2018-02-07T12:46:09.614Z,88.43
2018-02-07T12:48:37.097Z,83.67
2018-02-07T12:51:04.610Z,82.83
2018-02-07T12:53:32.098Z,79.63
2018-02-07T12:55:59.596Z,71.70
2018-02-07T12:58:27.098Z,74.87
2018-02-07T13:00:54.574Z,76.17
2018-02-07T13:03:22.271Z,73.30
2018-02-07T13:05:49.757Z,67.57
2018-02-07T13:08:17.275Z,68.63
2018-02-07T13:10:45.964Z,70.47
2018-02-07T13:13:13.458Z,65.43
2018-02-07T13:15:40.996Z,68.83
2018-02-07T13:18:08.469Z,69.60
2018-02-07T13:20:35.986Z,67.83
2018-02-07T13:23:03.572Z,61.03
2018-02-07T13:25:31.087Z,61.00
2018-02-07T13:27:59.092Z,64.33
2018-02-07T13:30:26.611Z,62.43
2018-02-07T13:32:54.879Z,69.73
2018-02-07T13:35:22.373Z,66.53
2018-02-07T13:37:50.035Z,62.60
2018-02-07T13:40:18.174Z,66.30
2018-02-07T13:42:46.463Z,62.80
2018-02-07T13:45:14.157Z,63.00
2018-02-07T13:47:41.659Z,61.80
2018-02-07T13:50:09.170Z,59.67
2018-02-07T13:52:36.674Z,55.90
2018-02-07T13:55:04.167Z,60.70
2018-02-07T13:57:32.412Z,51.63
2018-02-07T14:00:00.823Z,56.73
2018-02-07T14:02:29.078Z,58.50
2018-02-07T14:04:56.561Z,57.53
2018-02-07T14:07:24.871Z,56.60
2018-02-07T14:09:54.733Z,57.30
2018-02-07T14:12:22.570Z,53.17
2018-02-07T14:14:50.278Z,58.87
2018-02-07T14:17:17.759Z,60.10
2018-02-07T14:19:46.740Z,54.57
2018-02-07T14:22:16.942Z,57.40
2018-02-07T14:24:48.779Z,57.80
2018-02-07T14:27:17.211Z,56.10
2018-02-07T14:29:44.717Z,60.20
2018-02-07T14:32:12.260Z,61.37
2018-02-07T14:34:40.597Z,56.67
2018-02-07T14:37:08.081Z,59.33
2018-02-07T14:39:35.570Z,61.40
2018-02-07T14:42:03.848Z,56.13
2018-02-07T14:44:32.237Z,58.50
2018-02-07T14:46:59.737Z,55.73
2018-02-07T14:49:27.271Z,59.87
2018-02-07T14:51:54.772Z,61.57
2018-02-07T14:54:22.297Z,58.27
2018-02-07T14:56:50.535Z,57.47
2018-02-07T14:59:18.379Z,56.83
2018-02-07T15:01:45.871Z,55.73
2018-02-07T15:04:13.377Z,60.30
2018-02-07T15:06:40.882Z,54.10
2018-02-07T15:09:08.352Z,58.00
2018-02-07T15:11:35.863Z,58.97
2018-02-07T15:14:03.427Z,57.07
2018-02-07T15:16:30.908Z,57.17
2018-02-07T15:18:58.402Z,59.33
2018-02-07T15:21:25.889Z,58.77
2018-02-07T15:23:53.372Z,57.83
2018-02-07T15:26:20.869Z,56.30
2018-02-07T15:28:48.382Z,57.43
2018-02-07T15:31:15.914Z,54.87
2018-02-07T15:33:44.164Z,55.63
2018-02-07T15:36:11.656Z,56.63
2018-02-07T15:38:39.932Z,58.27
2018-02-07T15:41:08.178Z,53.03
2018-02-07T15:43:35.690Z,55.63
2018-02-07T15:46:03.172Z,54.50
2018-02-07T15:48:30.670Z,52.87
2018-02-07T15:50:58.912Z,52.67
2018-02-07T15:53:26.409Z,54.90
2018-02-07T15:55:54.720Z,56.97
2018-02-07T15:58:22.202Z,55.20
2018-02-07T16:00:49.683Z,53.20
2018-02-07T16:03:17.178Z,55.00
2018-02-07T16:05:44.702Z,59.43
2018-02-07T16:08:12.217Z,55.53
2018-02-07T16:10:39.697Z,56.50
2018-02-07T16:13:07.177Z,57.90
2018-02-07T16:15:35.483Z,58.10
2018-02-07T16:18:03.781Z,59.10
2018-02-07T16:20:31.265Z,61.47
2018-02-07T16:22:58.742Z,57.50
2018-02-07T16:25:26.250Z,58.40
2018-02-07T16:27:53.818Z,64.13
2018-02-07T16:30:21.314Z,60.00
2018-02-07T16:32:48.842Z,67.00
2018-02-07T16:35:16.332Z,67.67
2018-02-07T16:37:43.834Z,66.07
2018-02-07T16:40:12.106Z,72.90
2018-02-07T16:42:40.392Z,74.20
2018-02-07T16:45:09.044Z,68.90
2018-02-07T16:47:36.529Z,80.47
2018-02-07T16:50:04.863Z,77.13
2018-02-07T16:52:32.356Z,71.00
2018-02-07T16:55:00.622Z,77.67
2018-02-07T16:57:32.326Z,72.90
2018-02-07T16:59:59.937Z,73.37
2018-02-07T17:02:28.259Z,78.87
2018-02-07T17:04:55.992Z,80.60
2018-02-07T17:07:25.143Z,81.57
2018-02-07T17:09:53.022Z,79.73
2018-02-07T17:12:25.147Z,79.60
2018-02-07T17:14:55.281Z,81.00
2018-02-07T17:17:23.495Z,76.07
2018-02-07T17:19:53.370Z,76.50
2018-02-07T17:22:21.983Z,76.83
2018-02-07T17:24:50.137Z,79.20
2018-02-07T17:27:18.634Z,78.50
2018-02-07T17:29:46.795Z,84.20
2018-02-07T17:32:15.378Z,78.30
2018-02-07T17:34:43.245Z,85.07
2018-02-07T17:37:10.901Z,80.90
2018-02-07T17:39:38.400Z,80.67
2018-02-07T17:42:05.976Z,89.20
2018-02-07T17:44:33.623Z,84.63
2018-02-07T17:47:01.125Z,87.53
2018-02-07T17:49:28.674Z,93.20
2018-02-07T17:51:56.935Z,87.83
2018-02-07T17:54:24.422Z,94.97
2018-02-07T17:56:52.653Z,87.00
2018-02-07T17:59:20.166Z,91.07
2018-02-07T18:01:47.681Z,87.70
2018-02-07T18:04:15.179Z,91.97
2018-02-07T18:06:42.760Z,90.00
2018-02-07T18:09:10.796Z,95.13
2018-02-07T18:11:39.072Z,106.93
2018-02-07T18:14:07.320Z,105.83
2018-02-07T18:16:34.797Z,95.83
2018-02-07T18:19:02.357Z,89.80
2018-02-07T18:21:29.889Z,86.90
2018-02-07T18:23:57.433Z,92.13
2018-02-07T18:26:24.981Z,79.20
2018-02-07T18:28:52.465Z,92.17
2018-02-07T18:31:20.114Z,86.53
2018-02-07T18:33:47.600Z,89.70
2018-02-07T18:36:15.122Z,88.00
2018-02-07T18:38:42.600Z,87.50
2018-02-07T18:41:10.121Z,87.87
2018-02-07T18:43:38.365Z,83.70
2018-02-07T18:46:05.888Z,89.10
2018-02-07T18:48:33.386Z,81.83
2018-02-07T18:51:00.893Z,84.67
2018-02-07T18:53:28.373Z,82.93
2018-02-07T18:55:55.858Z,84.47
2018-02-07T18:58:23.478Z,85.83
2018-02-07T19:00:51.040Z,87.40
2018-02-07T19:03:18.518Z,89.63
2018-02-07T19:05:46.022Z,93.83
2018-02-07T19:08:14.312Z,88.23
2018-02-07T19:10:41.798Z,85.50
2018-02-07T19:13:09.313Z,78.67
2018-02-07T19:15:38.594Z,82.40
2018-02-07T19:18:06.088Z,81.53
2018-02-07T19:20:33.560Z,79.00
2018-02-07T19:23:01.189Z,73.10
2018-02-07T19:25:29.428Z,75.80
2018-02-07T19:27:56.918Z,74.87
2018-02-07T19:30:24.692Z,73.30
2018-02-07T19:32:52.156Z,70.90
2018-02-07T19:35:20.451Z,73.30
2018-02-07T19:37:48.599Z,73.37
2018-02-07T19:40:16.175Z,77.10
2018-02-07T19:42:43.654Z,69.13
2018-02-07T19:45:11.265Z,74.17
2018-02-07T19:47:38.790Z,75.70
2018-02-07T19:50:06.684Z,73.53
2018-02-07T19:52:35.007Z,69.27
2018-02-07T19:55:02.855Z,69.03
2018-02-07T19:57:31.241Z,69.90
2018-02-07T19:59:59.149Z,78.37
2018-02-07T20:02:27.507Z,78.90
2018-02-07T20:04:55.010Z,68.87
2018-02-07T20:07:23.202Z,71.77
2018-02-07T20:09:52.392Z,71.53
2018-02-07T20:12:20.332Z,72.53
2018-02-07T20:14:47.853Z,75.27
2018-02-07T20:17:16.617Z,73.77
2018-02-07T20:19:44.236Z,71.13
2018-02-07T20:22:12.904Z,79.63
2018-02-07T20:24:40.526Z,80.47
2018-02-07T20:27:08.119Z,76.17
2018-02-07T20:29:35.877Z,79.13
2018-02-07T20:32:03.367Z,82.90
2018-02-07T20:34:31.226Z,76.47
2018-02-07T20:36:58.717Z,78.27
2018-02-07T20:39:26.338Z,85.10
2018-02-07T20:41:53.942Z,85.83
2018-02-07T20:44:21.435Z,105.67
2018-02-07T20:46:49.700Z,104.27
2018-02-07T20:49:17.723Z,85.13
2018-02-07T20:51:45.202Z,88.93
2018-02-07T20:54:12.721Z,115.30
2018-02-07T20:56:40.243Z,95.93
2018-02-07T20:59:07.717Z,103.27
2018-02-07T21:01:35.990Z,88.27
2018-02-07T21:04:04.253Z,90.97
2018-02-07T21:06:31.829Z,83.23
2018-02-07T21:09:00.131Z,80.73
2018-02-07T21:11:27.673Z,86.67
2018-02-07T21:13:55.166Z,85.67
2018-02-07T21:16:22.727Z,110.73
2018-02-07T21:18:50.218Z,124.53
2018-02-07T21:21:17.746Z,102.33
2018-02-07T21:23:48.130Z,96.00
2018-02-07T21:26:16.733Z,95.17
2018-02-07T21:28:44.229Z,81.67
2018-02-07T21:31:11.705Z,95.93
2018-02-07T21:33:39.193Z,84.30
2018-02-07T21:36:07.452Z,75.03
2018-02-07T21:38:35.700Z,78.17
2018-02-07T21:41:03.189Z,86.30
2018-02-07T21:43:30.762Z,79.60
2018-02-07T21:45:59.009Z,80.00
2018-02-07T21:48:26.492Z,82.33
2018-02-07T21:50:54.760Z,76.77
2018-02-07T21:53:22.249Z,74.70
2018-02-07T21:55:49.712Z,80.63
2018-02-07T21:58:17.198Z,80.80
2018-02-07T22:00:44.679Z,85.90
2018-02-07T22:03:12.173Z,78.27
2018-02-07T22:05:40.404Z,82.00
2018-02-07T22:08:07.913Z,76.93
2018-02-07T22:10:36.191Z,79.83
2018-02-07T22:13:04.439Z,80.37
2018-02-07T22:15:31.922Z,82.30
2018-02-07T22:18:00.184Z,80.30
2018-02-07T22:20:27.701Z,77.10
2018-02-07T22:22:55.313Z,74.73
2018-02-07T22:25:23.566Z,76.23
2018-02-07T22:27:51.046Z,75.50
2018-02-07T22:30:19.455Z,77.63
2018-02-07T22:32:46.954Z,77.20
2018-02-07T22:35:14.481Z,72.47
2018-02-07T22:37:42.701Z,69.67
2018-02-07T22:40:10.215Z,69.07
2018-02-07T22:42:37.691Z,73.20
2018-02-07T22:45:05.200Z,75.67
2018-02-07T22:47:33.448Z,66.17
2018-02-07T22:50:00.929Z,73.10
2018-02-07T22:52:29.187Z,73.37
2018-02-07T22:54:56.701Z,79.70
2018-02-07T22:57:24.194Z,78.47
2018-02-07T22:59:51.678Z,79.17
2018-02-07T23:02:19.932Z,71.97
2018-02-07T23:04:47.407Z,73.77
2018-02-07T23:07:14.911Z,73.87
2018-02-07T23:09:42.382Z,74.57
2018-02-07T23:12:09.879Z,77.60
2018-02-07T23:14:37.535Z,76.77
2018-02-07T23:17:05.026Z,71.90
2018-02-07T23:19:33.264Z,69.10
2018-02-07T23:22:00.752Z,73.63
2018-02-07T23:24:29.331Z,72.80
2018-02-07T23:26:57.723Z,76.13
2018-02-07T23:29:26.004Z,77.23
2018-02-07T23:31:53.543Z,74.33
2018-02-07T23:34:21.041Z,75.53
2018-02-07T23:36:48.538Z,84.07
2018-02-07T23:39:16.049Z,77.40
2018-02-07T23:41:43.564Z,75.23
2018-02-07T23:44:11.821Z,82.53
2018-02-07T23:46:39.290Z,79.00
2018-02-07T23:49:06.780Z,75.27
2018-02-07T23:51:35.015Z,73.17
2018-02-07T23:54:02.498Z,77.07
2018-02-07T23:56:29.982Z,72.53
2018-02-07T23:58:58.230Z,72.73
